createdAt,value
2023-02-06T00:03:20.837Z,102333.72
2023-02-06T00:08:23.638Z,102336.59
2023-02-06T00:13:26.332Z,102339.88
2023-02-06T00:18:28.977Z,102337.03
2023-02-06T00:23:31.514Z,102343.94
2023-02-06T00:28:34.488Z,102337.50
2023-02-06T00:33:37.161Z,102330.13
2023-02-06T00:38:39.891Z,102340.28
2023-02-06T00:43:43.760Z,102329.03
2023-02-06T00:48:46.391Z,102333.97
2023-02-06T00:53:51.050Z,102339.44
2023-02-06T00:58:55.121Z,102335.38
2023-02-06T01:03:57.706Z,102337.88
2023-02-06T01:09:00.347Z,102338.25
2023-02-06T01:14:03.955Z,102352.09
2023-02-06T01:19:06.605Z,102351.94
2023-02-06T01:24:09.369Z,102353.28
2023-02-06T01:29:13.069Z,102356.44
2023-02-06T01:34:16.109Z,102357.34
2023-02-06T01:39:18.736Z,102361.53
2023-02-06T01:44:23.660Z,102366.75
2023-02-06T01:49:46.357Z,102373.97
2023-02-06T01:54:54.746Z,102369.63
2023-02-06T02:00:01.537Z,102372.34
2023-02-06T02:05:25.487Z,102368.63
2023-02-06T02:10:30.943Z,102378.63
2023-02-06T02:15:42.077Z,102378.19
2023-02-06T02:26:36.617Z,102387.31
2023-02-06T02:32:00.538Z,102385.66
2023-02-06T02:37:24.602Z,102385.44
2023-02-06T02:48:08.632Z,102380.03
2023-02-06T02:53:12.702Z,102383.59
2023-02-06T02:58:19.782Z,102376.31
2023-02-06T03:03:25.358Z,102380.72
2023-02-06T03:08:43.272Z,102395.63
2023-02-06T03:24:19.893Z,102373.63
2023-02-06T03:29:22.826Z,102376.53
2023-02-06T03:39:49.298Z,102395.25
2023-02-06T03:44:58.190Z,102399.81
2023-02-06T03:50:01.670Z,102400.66
2023-02-06T03:55:10.456Z,102409.78
2023-02-06T04:00:13.664Z,102409.34
2023-02-06T04:05:18.698Z,102411.84
2023-02-06T04:10:21.411Z,102412.69
2023-02-06T04:15:24.633Z,102405.22
2023-02-06T04:20:27.431Z,102408.34
2023-02-06T04:25:29.930Z,102406.03
2023-02-06T04:30:32.556Z,102409.28
2023-02-06T04:35:36.180Z,102408.66
2023-02-06T04:40:39.315Z,102412.94
2023-02-06T04:45:42.095Z,102407.28
2023-02-06T04:50:44.628Z,102407.31
2023-02-06T04:55:47.486Z,102407.06
2023-02-06T05:00:50.503Z,102412.69
2023-02-06T05:05:53.550Z,102414.31
2023-02-06T05:10:57.482Z,102425.09
2023-02-06T05:16:08.846Z,102418.22
2023-02-06T05:21:13.288Z,102419.34
2023-02-06T05:26:16.114Z,102431.44
2023-02-06T05:31:20.371Z,102432.28
2023-02-06T05:36:24.637Z,102428.00
2023-02-06T05:41:27.377Z,102420.47
2023-02-06T05:46:31.376Z,102417.78
2023-02-06T05:51:34.346Z,102425.47
2023-02-06T05:56:37.362Z,102427.25
2023-02-06T06:01:40.148Z,102436.25
2023-02-06T06:06:43.005Z,102431.16
2023-02-06T06:11:45.599Z,102431.22
2023-02-06T06:16:48.441Z,102429.75
2023-02-06T06:21:51.371Z,102430.59
2023-02-06T06:26:54.131Z,102440.97
2023-02-06T06:31:57.067Z,102437.47
2023-02-06T06:37:00.891Z,102458.16
2023-02-06T06:42:04.630Z,102461.97
2023-02-06T06:47:07.470Z,102461.38
2023-02-06T06:52:19.795Z,102468.25
2023-02-06T06:57:30.261Z,102463.88
2023-02-06T07:02:32.925Z,102459.22
2023-02-06T07:07:40.403Z,102464.16
2023-02-06T07:12:55.225Z,102462.63
2023-02-06T07:17:58.433Z,102460.88
2023-02-06T07:23:02.018Z,102467.78
2023-02-06T07:33:28.373Z,102461.13
2023-02-06T07:38:31.403Z,102469.66
2023-02-06T07:43:34.255Z,102467.81
2023-02-06T07:48:42.504Z,102461.53
2023-02-06T07:54:06.400Z,102459.53
2023-02-06T07:59:10.379Z,102467.88
2023-02-06T08:04:13.186Z,102469.47
2023-02-06T08:09:19.442Z,102464.34
2023-02-06T08:14:24.086Z,102469.53
2023-02-06T08:19:27.424Z,102464.50
2023-02-06T08:31:12.553Z,102462.56
2023-02-06T08:36:17.305Z,102464.88
2023-02-06T08:41:24.800Z,102456.38
2023-02-06T08:46:30.179Z,102461.47
2023-02-06T08:51:34.331Z,102447.25
2023-02-06T08:56:37.895Z,102448.03
2023-02-06T09:01:41.085Z,102446.84
2023-02-06T09:06:45.102Z,102448.44
2023-02-06T09:11:47.912Z,102429.81
2023-02-06T09:16:50.618Z,102444.28
2023-02-06T09:21:53.635Z,102445.16
2023-02-06T09:27:00.195Z,102435.84
2023-02-06T09:32:03.392Z,102444.22
2023-02-06T09:37:06.448Z,102443.56
2023-02-06T09:42:18.676Z,102421.72
2023-02-06T09:47:33.688Z,102416.97
2023-02-06T09:53:15.926Z,102407.03
2023-02-06T10:09:43.142Z,102399.59
2023-02-06T10:14:50.555Z,102386.94
2023-02-06T10:20:19.146Z,102391.53
2023-02-06T10:25:32.643Z,102389.38
2023-02-06T10:31:06.759Z,102386.09
2023-02-06T10:52:01.425Z,102363.16
2023-02-06T10:57:12.092Z,102369.47
2023-02-06T11:07:37.910Z,102367.34
2023-02-06T11:13:01.754Z,102354.94
2023-02-06T11:18:11.218Z,102339.50
2023-02-06T11:28:53.794Z,102341.97
2023-02-06T11:33:57.297Z,102339.84
2023-02-06T11:39:22.860Z,102339.44
2023-02-06T11:44:36.306Z,102346.63
2023-02-06T11:49:38.774Z,102354.66
2023-02-06T11:54:41.247Z,102339.09
2023-02-06T12:00:03.458Z,102342.94
2023-02-06T12:10:21.252Z,102360.38
2023-02-06T12:15:45.343Z,102360.41
2023-02-06T12:21:08.692Z,102354.19
2023-02-06T12:26:16.827Z,102354.56
2023-02-06T12:31:26.203Z,102341.50
2023-02-06T12:36:36.169Z,102359.75
2023-02-06T12:42:18.426Z,102334.84
2023-02-06T12:53:10.566Z,102342.31
2023-02-06T12:58:53.677Z,102341.22
2023-02-06T13:04:00.632Z,102346.81
2023-02-06T13:09:07.403Z,102348.50
2023-02-06T13:19:50.956Z,102347.63
2023-02-06T13:24:53.583Z,102357.94
2023-02-06T13:29:56.014Z,102347.56
2023-02-06T13:51:05.158Z,102368.66
2023-02-06T13:56:40.465Z,102374.78
2023-02-06T14:01:43.621Z,102355.81
2023-02-06T14:07:25.855Z,102376.25
2023-02-06T14:39:54.805Z,102422.94
2023-02-06T14:45:04.410Z,102427.69
2023-02-06T14:50:08.965Z,102415.81
2023-02-06T14:55:34.352Z,102422.06
2023-02-06T15:00:38.685Z,102429.78
2023-02-06T15:05:41.247Z,102438.06
2023-02-06T15:10:44.243Z,102434.31
2023-02-06T15:15:54.484Z,102439.75
2023-02-06T15:21:02.294Z,102450.31
2023-02-06T15:31:23.734Z,102446.38
2023-02-06T15:36:38.088Z,102458.22
2023-02-06T15:41:44.584Z,102456.53
2023-02-06T15:46:49.367Z,102465.50
2023-02-06T15:51:55.208Z,102457.59
2023-02-06T15:57:08.965Z,102474.84
2023-02-06T16:02:33.491Z,102476.50
2023-02-06T16:07:39.794Z,102476.31
2023-02-06T16:12:44.322Z,102474.50
2023-02-06T16:17:47.012Z,102480.94
2023-02-06T16:22:51.591Z,102478.03
2023-02-06T16:27:54.675Z,102489.47
2023-02-06T16:33:00.060Z,102490.22
2023-02-06T16:38:02.709Z,102477.81
2023-02-06T16:43:10.192Z,102469.88
2023-02-06T16:48:17.278Z,102463.47
2023-02-06T16:53:28.646Z,102453.50
2023-02-06T16:58:32.601Z,102453.47
2023-02-06T17:03:38.158Z,102475.22
2023-02-06T17:08:40.863Z,102484.66
2023-02-06T17:13:43.930Z,102481.97
2023-02-06T17:18:47.579Z,102493.19
2023-02-06T17:23:51.677Z,102486.09
2023-02-06T17:28:54.282Z,102482.97
2023-02-06T17:33:57.046Z,102488.03
2023-02-06T17:39:01.043Z,102483.00
2023-02-06T17:44:03.786Z,102481.00
2023-02-06T17:49:09.061Z,102484.78
2023-02-06T17:54:13.066Z,102476.34
2023-02-06T17:59:15.882Z,102472.16
2023-02-06T18:04:20.732Z,102453.03
2023-02-06T18:09:23.315Z,102461.50
2023-02-06T18:14:26.761Z,102456.34
2023-02-06T18:19:30.511Z,102457.47
2023-02-06T18:24:33.202Z,102460.59
2023-02-06T18:29:50.079Z,102454.69
2023-02-06T18:34:53.545Z,102479.94
2023-02-06T18:39:56.296Z,102471.41
2023-02-06T18:44:58.879Z,102471.78
2023-02-06T18:50:01.456Z,102456.00
2023-02-06T18:55:08.266Z,102462.31
2023-02-06T19:00:13.872Z,102466.34
2023-02-06T19:05:17.177Z,102462.31
2023-02-06T19:10:21.910Z,102464.69
2023-02-06T19:15:24.502Z,102464.97
2023-02-06T19:20:27.201Z,102466.56
2023-02-06T19:25:30.445Z,102467.25
2023-02-06T19:30:33.022Z,102462.91
2023-02-06T19:35:40.721Z,102468.66
2023-02-06T19:40:45.096Z,102472.69
2023-02-06T19:45:47.869Z,102466.09
2023-02-06T19:50:51.454Z,102470.81
2023-02-06T19:55:54.201Z,102458.41
2023-02-06T20:00:58.085Z,102451.13
2023-02-06T20:06:02.839Z,102453.56
2023-02-06T20:11:07.795Z,102455.44
2023-02-06T20:16:20.377Z,102443.13
2023-02-06T20:26:38.541Z,102448.34
2023-02-06T20:31:41.188Z,102448.22
2023-02-06T20:36:44.692Z,102437.28
2023-02-06T20:41:49.734Z,102431.94
2023-02-06T20:46:52.600Z,102428.97
2023-02-06T20:51:58.041Z,102430.25
2023-02-06T20:57:00.659Z,102428.47
2023-02-06T21:02:03.327Z,102427.31
2023-02-06T21:07:06.835Z,102417.72
2023-02-06T21:12:09.652Z,102406.16
2023-02-06T21:17:12.371Z,102396.47
2023-02-06T21:22:14.987Z,102399.38
2023-02-06T21:27:17.628Z,102407.44
2023-02-06T21:32:21.084Z,102410.88
2023-02-06T21:37:23.638Z,102425.38
2023-02-06T21:42:27.775Z,102424.25
2023-02-06T21:47:30.358Z,102430.56
2023-02-06T21:52:35.533Z,102430.69
2023-02-06T21:57:38.120Z,102438.19
2023-02-06T22:02:40.735Z,102435.25
2023-02-06T22:07:43.236Z,102436.88
2023-02-06T22:12:49.781Z,102431.59
2023-02-06T22:17:52.359Z,102448.88
2023-02-06T22:22:55.805Z,102452.94
2023-02-06T22:27:58.371Z,102466.38
2023-02-06T22:33:00.918Z,102477.91
2023-02-06T22:38:03.752Z,102472.97
2023-02-06T22:43:06.506Z,102483.66
2023-02-06T22:48:09.041Z,102477.94
2023-02-06T22:53:32.033Z,102481.16
2023-02-06T22:58:34.596Z,102487.00
2023-02-06T23:03:37.289Z,102499.91
2023-02-06T23:08:40.916Z,102504.81
2023-02-06T23:13:43.609Z,102503.06
2023-02-06T23:18:46.315Z,102506.03
2023-02-06T23:23:49.260Z,102507.53
2023-02-06T23:28:51.920Z,102508.72
2023-02-06T23:33:55.269Z,102495.97
2023-02-06T23:38:57.960Z,102498.94
2023-02-06T23:44:06.430Z,102508.25
2023-02-06T23:49:09.637Z,102511.84
2023-02-06T23:54:12.258Z,102505.66
2023-02-06T23:59:14.916Z,102494.78
